Time;durP1;ratioP1;P1;durP2;ratioP2;P2;SDS_P1;SDS_P2;PMS_P1;PMS_P2;Temp;Humidity;BMP_temperature;BMP_pressure;BME280_temperature;BME280_humidity;BME280_pressure;Samples;Min_cycle;Max_cycle;Signal;HPM_P1;HPM_P2
2022/11/29 00:00:49;;;;;;;4.03;3.27;;;7.40;99.90;;;;;;5011852;28;20201;-77
2022/11/29 00:03:15;;;;;;;3.30;2.90;;;7.40;99.90;;;;;;5010445;28;20312;-77
2022/11/29 00:05:40;;;;;;;3.40;3.10;;;7.30;99.90;;;;;;5009587;28;20535;-76
2022/11/29 00:08:06;;;;;;;4.60;3.10;;;7.30;99.90;;;;;;5010555;28;20177;-78
2022/11/29 00:10:37;;;;;;;5.57;3.03;;;7.40;99.90;;;;;;5009859;28;20197;-77
2022/11/29 00:13:03;;;;;;;3.20;2.63;;;7.40;99.90;;;;;;5010325;28;20181;-77
2022/11/29 00:15:35;;;;;;;2.70;2.50;;;7.50;99.90;;;;;;5010642;28;20454;-77
2022/11/29 00:18:01;;;;;;;5.43;3.00;;;7.40;99.90;;;;;;5009371;28;20440;-76
2022/11/29 00:20:26;;;;;;;3.33;2.67;;;7.50;99.90;;;;;;5011160;28;20415;-78
2022/11/29 00:22:52;;;;;;;3.00;2.80;;;7.40;99.90;;;;;;5010976;28;20296;-76
2022/11/29 00:25:19;;;;;;;2.73;2.53;;;7.40;99.90;;;;;;5010153;28;20192;-77
2022/11/29 00:27:45;;;;;;;3.40;2.70;;;7.40;99.90;;;;;;5009357;28;20177;-77
2022/11/29 00:30:11;;;;;;;2.87;2.57;;;7.50;99.90;;;;;;5008393;28;20483;-77
2022/11/29 00:32:36;;;;;;;2.97;2.40;;;7.50;99.90;;;;;;5010101;28;20929;-78
2022/11/29 00:35:02;;;;;;;3.70;2.30;;;7.50;99.90;;;;;;5008706;28;20477;-79
2022/11/29 00:37:28;;;;;;;4.10;3.13;;;7.50;99.90;;;;;;4976688;28;20267;-78
2022/11/29 00:39:53;;;;;;;1.80;1.70;;;7.50;99.90;;;;;;4992917;28;20429;-78
2022/11/29 00:42:19;;;;;;;2.10;2.00;;;7.50;99.90;;;;;;5008860;28;20275;-79
2022/11/29 00:44:45;;;;;;;1.97;1.87;;;7.40;99.90;;;;;;5009098;28;20181;-78
2022/11/29 00:47:10;;;;;;;2.50;2.30;;;7.40;99.90;;;;;;4992410;28;20189;-76
2022/11/29 00:49:36;;;;;;;4.63;3.00;;;7.40;99.90;;;;;;5008239;28;20208;-78
2022/11/29 00:52:02;;;;;;;2.80;2.60;;;7.40;99.90;;;;;;4993854;28;20231;-77
2022/11/29 00:54:27;;;;;;;3.90;1.93;;;7.40;99.90;;;;;;5009890;28;20189;-77
2022/11/29 00:56:53;;;;;;;2.40;2.17;;;7.40;99.90;;;;;;5008586;28;20239;-76
2022/11/29 00:59:19;;;;;;;5.20;2.90;;;7.40;99.90;;;;;;5009945;28;20181;-78
2022/11/29 01:01:44;;;;;;;3.43;3.13;;;7.40;99.90;;;;;;5011529;28;20213;-79
2022/11/29 01:04:10;;;;;;;2.67;2.47;;;7.40;99.90;;;;;;4979582;28;20213;-79
2022/11/29 01:06:36;;;;;;;4.63;2.90;;;7.40;99.90;;;;;;5013261;28;20208;-79
2022/11/29 01:09:02;;;;;;;2.50;2.30;;;7.20;99.90;;;;;;5012378;28;20235;-79
2022/11/29 01:11:28;;;;;;;2.83;2.43;;;7.30;99.90;;;;;;5013050;28;20204;-77
2022/11/29 01:13:59;;;;;;;2.60;2.23;;;7.40;99.90;;;;;;5013384;28;20424;-78
2022/11/29 01:16:26;;;;;;;2.93;2.60;;;7.30;99.90;;;;;;5011618;28;20196;-77
2022/11/29 01:18:51;;;;;;;3.60;2.47;;;7.40;99.90;;;;;;5012737;28;20996;-78
2022/11/29 01:21:21;;;;;;;3.30;2.63;;;7.40;99.90;;;;;;4995060;28;20543;-78
2022/11/29 01:23:50;;;;;;;3.40;2.50;;;7.40;99.90;;;;;;5011539;28;20351;-77
2022/11/29 01:26:22;;;;;;;5.70;2.50;;;7.40;99.90;;;;;;5011451;28;20428;-78
2022/11/29 01:28:49;;;;;;;2.10;1.90;;;7.40;99.90;;;;;;5012745;28;20412;-77
2022/11/29 01:31:24;;;;;;;2.20;2.00;;;7.30;99.90;;;;;;5012493;28;20498;-78
2022/11/29 01:33:58;;;;;;;3.87;1.80;;;7.40;99.90;;;;;;5012601;28;20427;-77
2022/11/29 01:36:24;;;;;;;3.00;1.97;;;7.40;99.90;;;;;;5011120;28;20917;-77
2022/11/29 01:38:50;;;;;;;2.40;2.00;;;7.30;99.90;;;;;;5011186;28;20431;-78
2022/11/29 01:41:25;;;;;;;2.53;2.00;;;7.30;99.90;;;;;;5012193;28;20453;-77
2022/11/29 01:44:04;;;;;;;2.30;1.90;;;7.30;99.90;;;;;;5012219;28;20459;-78
2022/11/29 01:46:35;;;;;;;3.10;1.80;;;7.30;99.90;;;;;;5012601;28;20504;-79
2022/11/29 01:49:04;;;;;;;4.60;1.70;;;7.40;99.90;;;;;;5010846;28;20432;-77
2022/11/29 01:51:31;;;;;;;4.20;1.90;;;7.30;99.90;;;;;;5012224;28;20527;-78
2022/11/29 01:53:57;;;;;;;2.70;1.63;;;7.30;99.90;;;;;;5012272;28;20420;-77
2022/11/29 01:56:24;;;;;;;2.90;1.77;;;7.30;99.90;;;;;;5011380;28;20420;-82
2022/11/29 01:58:50;;;;;;;2.70;1.80;;;7.30;99.90;;;;;;4994764;28;20436;-77
2022/11/29 02:01:16;;;;;;;6.27;2.30;;;7.30;99.90;;;;;;5011883;28;20452;-77
2022/11/29 02:03:41;;;;;;;2.50;1.50;;;7.30;99.90;;;;;;5011546;28;20840;-78
2022/11/29 02:06:08;;;;;;;2.50;1.77;;;7.20;99.90;;;;;;4995846;28;20212;-77
2022/11/29 02:08:39;;;;;;;3.30;2.00;;;7.30;99.90;;;;;;5013065;28;20189;-77
2022/11/29 02:11:15;;;;;;;2.30;1.57;;;7.30;99.90;;;;;;5012852;28;21336;-79
2022/11/29 02:13:41;;;;;;;4.10;1.73;;;7.30;99.90;;;;;;5011426;28;20440;-77
2022/11/29 02:16:26;;;;;;;2.70;1.80;;;7.30;99.90;;;;;;5012761;28;20420;-79
2022/11/29 02:19:22;;;;;;;1.57;1.47;;;7.30;99.90;;;;;;5012549;28;20580;-76
2022/11/29 02:21:51;;;;;;;1.57;1.37;;;7.30;99.90;;;;;;5011302;28;20870;-77
2022/11/29 02:24:49;;;;;;;11.23;3.43;;;7.30;99.90;;;;;;5010915;28;20464;-77
2022/11/29 02:27:21;;;;;;;3.07;2.00;;;7.30;99.90;;;;;;5012320;28;20768;-77
2022/11/29 02:30:07;;;;;;;2.10;1.80;;;7.30;99.90;;;;;;5010508;28;20844;-76
2022/11/29 02:32:51;;;;;;;2.20;1.90;;;7.30;99.90;;;;;;5011323;28;20523;-77
2022/11/29 02:35:32;;;;;;;2.07;1.50;;;7.30;99.90;;;;;;5009953;28;20428;-76
2022/11/29 02:38:29;;;;;;;2.87;1.33;;;7.20;99.90;;;;;;5009911;28;20945;-77
2022/11/29 02:41:22;;;;;;;3.90;1.63;;;7.30;99.90;;;;;;5010355;28;20486;-79
2022/11/29 02:43:50;;;;;;;2.03;1.57;;;7.30;99.90;;;;;;5011161;28;20976;-77
2022/11/29 02:46:50;;;;;;;4.43;1.43;;;7.30;99.90;;;;;;5011552;28;20423;-78
2022/11/29 02:49:25;;;;;;;3.00;1.70;;;7.30;99.90;;;;;;5011595;28;21146;-77
2022/11/29 02:52:06;;;;;;;2.37;1.80;;;7.30;99.90;;;;;;5009646;28;20462;-78
2022/11/29 02:55:16;;;;;;;4.87;2.00;;;7.30;99.90;;;;;;5011177;28;20917;-77
2022/11/29 02:58:21;;;;;;;6.87;1.90;;;7.30;99.90;;;;;;4969483;28;20442;-77
2022/11/29 03:01:10;;;;;;;5.60;1.80;;;7.30;99.90;;;;;;4981321;28;20451;-76
2022/11/29 03:03:42;;;;;;;5.10;2.00;;;7.30;99.90;;;;;;5010911;28;20969;-77
2022/11/29 03:06:41;;;;;;;4.57;1.90;;;7.30;99.90;;;;;;5010844;28;20451;-77
2022/11/29 03:09:27;;;;;;;1.97;1.27;;;7.30;99.90;;;;;;5011015;28;20413;-78
2022/11/29 03:12:09;;;;;;;5.03;1.97;;;7.30;99.90;;;;;;5010608;28;20420;-77
2022/11/29 03:14:56;;;;;;;4.53;1.83;;;7.30;99.90;;;;;;5010988;28;20400;-78
2022/11/29 03:17:36;;;;;;;2.50;1.37;;;7.20;99.90;;;;;;5009536;28;20420;-77
2022/11/29 03:20:39;;;;;;;2.93;1.60;;;7.30;99.90;;;;;;5010961;28;20415;-77
2022/11/29 03:23:18;;;;;;;3.27;1.50;;;7.30;99.90;;;;;;5009920;28;21049;-77
2022/11/29 03:26:00;;;;;;;3.30;1.57;;;7.30;99.90;;;;;;5010436;28;20416;-77
2022/11/29 03:28:49;;;;;;;2.90;1.50;;;7.30;99.90;;;;;;5010577;28;20456;-77
2022/11/29 03:31:19;;;;;;;2.50;1.80;;;7.30;99.90;;;;;;5009170;28;20483;-77
2022/11/29 03:33:48;;;;;;;3.77;1.90;;;7.30;99.90;;;;;;5010436;28;20420;-77
2022/11/29 03:36:28;;;;;;;7.60;1.77;;;7.30;99.90;;;;;;5010254;28;20463;-77
2022/11/29 03:38:59;;;;;;;4.23;1.30;;;7.30;99.90;;;;;;5010422;28;20485;-77
2022/11/29 03:41:36;;;;;;;6.00;1.27;;;7.30;99.90;;;;;;5008780;28;20452;-77
2022/11/29 03:44:26;;;;;;;3.00;1.37;;;7.30;99.90;;;;;;5008509;28;21200;-80
2022/11/29 03:47:14;;;;;;;3.87;1.60;;;7.30;99.90;;;;;;4992424;28;20482;-80
2022/11/29 03:49:50;;;;;;;5.73;1.60;;;7.30;99.90;;;;;;4993921;28;20424;-77
2022/11/29 03:52:24;;;;;;;2.33;1.37;;;7.30;99.90;;;;;;5011071;28;20439;-78
2022/11/29 03:55:13;;;;;;;2.33;1.67;;;7.30;99.90;;;;;;5012791;28;20446;-77
2022/11/29 03:57:44;;;;;;;2.60;1.30;;;7.40;99.90;;;;;;5011801;28;20408;-77
2022/11/29 04:00:11;;;;;;;4.83;1.50;;;7.40;99.90;;;;;;5009884;28;20847;-78
2022/11/29 04:03:11;;;;;;;9.33;1.30;;;7.40;99.90;;;;;;5017478;28;20443;-76
2022/11/29 04:05:49;;;;;;;3.47;1.40;;;7.30;99.90;;;;;;5034906;28;20428;-78
2022/11/29 04:08:40;;;;;;;5.27;1.70;;;7.40;99.90;;;;;;5035672;28;20463;-78
2022/11/29 04:11:35;;;;;;;8.27;1.20;;;7.40;99.90;;;;;;5035748;28;20442;-77
2022/11/29 04:14:38;;;;;;;5.40;1.23;;;7.30;99.90;;;;;;5011826;28;20416;-77
2022/11/29 04:17:35;;;;;;;4.73;1.03;;;7.30;99.90;;;;;;5010226;28;20424;-77
2022/11/29 04:20:18;;;;;;;4.20;1.50;;;7.30;99.90;;;;;;5010128;28;21096;-76
2022/11/29 04:23:05;;;;;;;5.90;1.70;;;7.20;99.90;;;;;;5009617;28;20833;-76
2022/11/29 04:26:01;;;;;;;7.60;1.73;;;7.30;99.90;;;;;;5009505;28;20422;-75
2022/11/29 04:28:42;;;;;;;4.30;1.77;;;7.30;99.90;;;;;;5007849;28;20424;-75
2022/11/29 04:31:44;;;;;;;2.77;1.30;;;7.20;99.90;;;;;;5008998;28;20861;-76
2022/11/29 04:34:38;;;;;;;4.93;1.30;;;7.20;99.90;;;;;;5007574;28;20952;-76
2022/11/29 04:37:04;;;;;;;6.30;1.30;;;7.20;99.90;;;;;;5007558;28;20427;-76
2022/11/29 04:40:03;;;;;;;8.63;1.67;;;7.20;99.90;;;;;;5007724;28;20474;-76
2022/11/29 04:42:59;;;;;;;3.37;1.33;;;7.20;99.90;;;;;;5009002;28;20666;-76
2022/11/29 04:45:53;;;;;;;5.33;1.30;;;7.20;99.90;;;;;;5007942;28;20797;-76
2022/11/29 04:49:13;;;;;;;6.60;1.53;;;7.20;99.90;;;;;;5009042;28;20466;-76
2022/11/29 04:52:16;;;;;;;7.53;1.53;;;7.20;99.90;;;;;;5007424;28;20443;-76
2022/11/29 04:54:44;;;;;;;5.27;1.20;;;7.20;99.90;;;;;;5007314;28;20566;-76
2022/11/29 04:57:27;;;;;;;10.43;2.27;;;7.20;99.90;;;;;;5008876;28;20447;-76
2022/11/29 05:00:14;;;;;;;6.53;1.50;;;7.20;99.90;;;;;;5009027;28;20420;-76
2022/11/29 05:02:51;;;;;;;13.63;2.10;;;7.20;99.90;;;;;;5008666;28;21040;-79
2022/11/29 05:05:58;;;;;;;6.00;1.40;;;7.20;99.90;;;;;;5009132;28;20389;-80
2022/11/29 05:08:44;;;;;;;6.10;1.23;;;7.20;99.90;;;;;;5007907;28;20434;-79
2022/11/29 05:11:21;;;;;;;6.37;1.10;;;7.20;99.90;;;;;;5010062;28;20448;-79
2022/11/29 05:14:01;;;;;;;3.60;1.60;;;7.20;99.90;;;;;;5008587;28;20515;-80
2022/11/29 05:16:48;;;;;;;7.40;1.80;;;7.20;99.90;;;;;;5007060;28;20458;-79
2022/11/29 05:19:32;;;;;;;4.03;1.50;;;7.20;99.90;;;;;;5008678;28;20437;-79
2022/11/29 05:22:06;;;;;;;9.43;1.90;;;7.20;99.90;;;;;;5009054;28;20796;-81
2022/11/29 05:24:32;;;;;;;11.73;1.57;;;7.20;99.90;;;;;;5015764;28;20458;-83
2022/11/29 05:27:36;;;;;;;3.40;1.70;;;7.20;99.90;;;;;;5018562;28;20435;-81
2022/11/29 05:30:15;;;;;;;9.53;1.60;;;7.20;99.90;;;;;;5005457;28;20202;-81
2022/11/29 05:33:16;;;;;;;7.10;1.90;;;7.20;99.90;;;;;;5015510;28;20404;-81
2022/11/29 05:36:20;;;;;;;7.07;2.57;;;7.30;99.90;;;;;;5015808;28;20487;-81
2022/11/29 05:38:59;;;;;;;14.83;5.20;;;7.30;99.90;;;;;;5012324;28;20431;-80
2022/11/29 05:42:01;;;;;;;8.03;2.10;;;7.20;99.90;;;;;;5011769;28;20538;-81
2022/11/29 05:44:35;;;;;;;8.00;1.67;;;7.20;99.90;;;;;;5015535;28;20557;-81
2022/11/29 05:47:04;;;;;;;13.80;2.20;;;7.20;99.90;;;;;;5015230;28;20434;-81
2022/11/29 05:49:35;;;;;;;4.53;1.80;;;7.20;99.90;;;;;;5013263;28;20424;-80
2022/11/29 05:52:19;;;;;;;8.27;1.73;;;7.20;99.90;;;;;;5014158;28;20444;-80
2022/11/29 05:55:08;;;;;;;7.77;2.80;;;7.20;99.90;;;;;;5013984;28;20416;-82
2022/11/29 05:57:57;;;;;;;12.73;7.00;;;7.20;99.90;;;;;;5016622;28;20408;-80
2022/11/29 06:00:26;;;;;;;7.10;4.17;;;7.20;99.90;;;;;;5012046;28;21254;-80
2022/11/29 06:03:20;;;;;;;10.77;3.63;;;7.20;99.90;;;;;;5014721;28;20467;-80
2022/11/29 06:05:55;;;;;;;4.13;1.90;;;7.20;99.90;;;;;;5020278;28;20429;-80
2022/11/29 06:08:24;;;;;;;14.80;5.07;;;7.10;99.90;;;;;;5015133;28;20432;-80
2022/11/29 06:11:20;;;;;;;129.23;52.07;;;7.10;99.90;;;;;;5012759;28;20929;-81
2022/11/29 06:14:07;;;;;;;44.20;18.43;;;7.10;99.90;;;;;;5014526;28;20401;-81
2022/11/29 06:16:49;;;;;;;21.33;5.50;;;7.10;99.90;;;;;;5009704;28;20424;-81
2022/11/29 06:19:18;;;;;;;8.83;2.90;;;7.10;99.90;;;;;;5011682;28;20432;-81
2022/11/29 06:21:52;;;;;;;10.83;2.80;;;7.00;99.90;;;;;;5012484;28;20807;-81
2022/11/29 06:24:50;;;;;;;10.20;2.63;;;7.00;99.90;;;;;;5012025;28;20447;-81
2022/11/29 06:27:43;;;;;;;8.03;3.27;;;6.90;99.90;;;;;;5012340;28;20428;-81
2022/11/29 06:30:14;;;;;;;8.23;2.80;;;6.90;99.90;;;;;;5010533;28;20420;-81
2022/11/29 06:33:00;;;;;;;14.10;4.60;;;6.90;99.90;;;;;;5010604;28;20444;-81
2022/11/29 06:35:49;;;;;;;8.53;3.67;;;6.90;99.90;;;;;;5012257;28;21249;-80
2022/11/29 06:38:27;;;;;;;8.33;4.90;;;6.90;99.90;;;;;;5012264;28;20414;-81
2022/11/29 06:40:55;;;;;;;17.23;6.23;;;6.90;99.90;;;;;;5010969;28;20448;-81
2022/11/29 06:43:21;;;;;;;8.53;3.17;;;6.90;99.90;;;;;;5011401;28;20472;-81
2022/11/29 06:45:51;;;;;;;14.37;4.10;;;6.90;99.90;;;;;;4994586;28;20436;-81
2022/11/29 06:48:23;;;;;;;26.23;8.77;;;6.90;99.90;;;;;;4994741;28;20916;-81
2022/11/29 06:51:05;;;;;;;33.17;11.27;;;6.90;99.90;;;;;;5010985;28;20441;-81
2022/11/29 06:53:54;;;;;;;13.33;3.90;;;6.90;99.90;;;;;;5010415;28;20412;-81
2022/11/29 06:56:54;;;;;;;8.03;2.90;;;6.90;99.90;;;;;;5010412;28;20462;-80
2022/11/29 06:59:28;;;;;;;15.60;2.80;;;6.90;99.90;;;;;;5011612;28;20402;-81
2022/11/29 07:02:22;;;;;;;11.97;2.77;;;6.90;99.90;;;;;;5010166;28;20443;-81
2022/11/29 07:05:06;;;;;;;52.10;21.20;;;6.80;99.90;;;;;;5009492;28;20510;-80
2022/11/29 07:07:33;;;;;;;23.73;12.70;;;6.90;99.90;;;;;;5009686;28;20417;-80
2022/11/29 07:10:01;;;;;;;14.80;4.33;;;6.90;99.90;;;;;;5009398;28;20768;-81
2022/11/29 07:12:27;;;;;;;9.87;3.63;;;6.80;99.90;;;;;;5009479;28;20877;-81
2022/11/29 07:14:53;;;;;;;7.10;3.90;;;6.80;99.90;;;;;;5009508;28;20501;-81
2022/11/29 07:17:33;;;;;;;21.03;8.10;;;6.80;99.90;;;;;;5009112;28;20420;-80
2022/11/29 07:20:17;;;;;;;49.23;25.17;;;6.80;99.90;;;;;;5008795;28;20523;-81
2022/11/29 07:23:05;;;;;;;26.40;11.73;;;6.80;99.90;;;;;;5008575;28;20417;-80
2022/11/29 07:25:45;;;;;;;12.10;3.77;;;6.90;99.90;;;;;;5009125;28;20463;-80
2022/11/29 07:28:24;;;;;;;22.73;11.13;;;6.90;99.90;;;;;;5008894;28;20412;-81
2022/11/29 07:30:59;;;;;;;48.53;28.10;;;6.90;99.90;;;;;;5008513;28;20517;-81
2022/11/29 07:33:41;;;;;;;16.13;9.00;;;6.90;99.90;;;;;;5009884;28;20400;-80
2022/11/29 07:36:25;;;;;;;11.73;4.63;;;7.00;99.90;;;;;;5009168;28;20424;-80
2022/11/29 07:38:51;;;;;;;9.03;6.13;;;6.90;99.90;;;;;;5008728;28;20463;-81
2022/11/29 07:41:26;;;;;;;14.60;4.90;;;6.90;99.90;;;;;;5008542;28;20467;-81
2022/11/29 07:44:04;;;;;;;16.47;4.50;;;7.00;99.90;;;;;;5009895;28;20208;-80
2022/11/29 07:46:30;;;;;;;9.33;3.30;;;6.80;99.90;;;;;;5008457;28;20412;-80
2022/11/29 07:48:55;;;;;;;12.70;4.67;;;6.80;99.90;;;;;;5010192;28;20782;-80
2022/11/29 07:51:21;;;;;;;18.50;4.77;;;6.90;99.90;;;;;;4991704;28;20244;-80
2022/11/29 07:53:47;;;;;;;9.20;3.80;;;7.00;99.90;;;;;;5009417;28;20730;-81
2022/11/29 07:56:15;;;;;;;6.70;3.73;;;7.10;99.90;;;;;;5008537;28;20185;-80
2022/11/29 07:58:41;;;;;;;10.40;3.27;;;6.90;99.90;;;;;;4991836;28;20223;-81
2022/11/29 08:01:06;;;;;;;11.33;4.03;;;7.00;99.90;;;;;;5007797;28;21254;-80
2022/11/29 08:03:34;;;;;;;16.60;5.00;;;6.80;99.90;;;;;;4991388;28;20521;-80
2022/11/29 08:06:00;;;;;;;9.93;4.63;;;6.80;99.90;;;;;;5007380;28;20300;-81
2022/11/29 08:08:26;;;;;;;9.97;3.63;;;6.90;99.90;;;;;;5007416;28;20455;-81
2022/11/29 08:10:51;;;;;;;9.90;3.70;;;6.90;99.90;;;;;;5006973;28;20444;-80
2022/11/29 08:13:19;;;;;;;16.57;6.13;;;6.80;99.90;;;;;;4974726;28;20189;-81
2022/11/29 08:15:46;;;;;;;11.10;5.87;;;7.00;99.90;;;;;;5007408;28;20186;-80
2022/11/29 08:18:12;;;;;;;10.77;5.80;;;7.00;99.90;;;;;;4990780;28;20462;-80
2022/11/29 08:20:40;;;;;;;13.37;6.20;;;6.90;99.90;;;;;;4990782;28;20455;-81
2022/11/29 08:23:07;;;;;;;16.37;6.30;;;6.90;99.90;;;;;;5008679;28;20461;-80
2022/11/29 08:25:33;;;;;;;15.90;4.83;;;6.90;99.90;;;;;;5007067;28;20807;-80
2022/11/29 08:28:01;;;;;;;10.23;5.17;;;6.90;99.90;;;;;;5007012;28;20416;-80
2022/11/29 08:30:26;;;;;;;18.13;6.87;;;6.90;99.90;;;;;;5008398;28;20474;-81
2022/11/29 08:32:52;;;;;;;5.70;4.20;;;7.10;99.90;;;;;;4992097;28;20432;-80
2022/11/29 08:35:19;;;;;;;20.50;6.13;;;6.90;99.90;;;;;;4991709;28;20292;-80
2022/11/29 08:37:45;;;;;;;11.57;7.10;;;7.00;99.90;;;;;;5008102;28;20185;-80
2022/11/29 08:40:12;;;;;;;12.47;5.80;;;7.00;99.90;;;;;;5007979;28;20489;-80
2022/11/29 08:42:38;;;;;;;12.10;5.80;;;7.00;99.90;;;;;;5007659;28;20268;-81
2022/11/29 08:45:05;;;;;;;5.57;2.70;;;7.00;99.90;;;;;;4975086;28;20522;-81
2022/11/29 08:47:37;;;;;;;7.70;2.73;;;7.00;99.90;;;;;;5009514;28;20185;-80
2022/11/29 08:50:08;;;;;;;9.23;2.53;;;7.00;99.90;;;;;;5007635;28;20412;-81
2022/11/29 08:55:23;;;;;;;6.37;4.30;;;7.00;99.90;;;;;;5008966;28;20795;-80
2022/11/29 08:57:50;;;;;;;9.77;4.50;;;7.00;99.90;;;;;;5009568;28;20417;-81
2022/11/29 09:00:17;;;;;;;10.90;6.23;;;6.90;99.90;;;;;;5008747;28;20416;-81
2022/11/29 09:02:43;;;;;;;9.80;5.20;;;7.00;99.90;;;;;;5009080;28;20788;-80
2022/11/29 09:05:10;;;;;;;8.87;5.60;;;7.00;99.90;;;;;;5009412;28;20511;-81
2022/11/29 09:07:37;;;;;;;6.17;4.07;;;7.00;99.90;;;;;;4991614;28;20811;-80
2022/11/29 09:10:06;;;;;;;4.43;3.33;;;7.00;99.90;;;;;;5007239;28;20454;-81
2022/11/29 09:12:33;;;;;;;5.57;3.27;;;7.00;99.90;;;;;;5007762;28;20941;-81
2022/11/29 09:14:59;;;;;;;5.30;3.73;;;7.00;99.90;;;;;;4991179;28;20519;-81
2022/11/29 09:17:24;;;;;;;5.80;4.17;;;7.00;99.90;;;;;;5008026;28;20518;-81
2022/11/29 09:19:50;;;;;;;11.47;4.90;;;7.00;99.90;;;;;;4992105;28;20169;-80
2022/11/29 09:22:16;;;;;;;5.30;4.30;;;7.00;99.90;;;;;;5009881;28;20679;-80
2022/11/29 09:24:41;;;;;;;6.20;4.30;;;7.00;99.90;;;;;;5011439;28;20221;-80
2022/11/29 09:27:07;;;;;;;9.23;4.50;;;7.30;99.90;;;;;;4979666;28;20196;-80
2022/11/29 09:29:33;;;;;;;5.80;4.80;;;7.20;99.90;;;;;;4995519;28;20188;-80
2022/11/29 09:31:58;;;;;;;7.40;5.13;;;7.10;99.90;;;;;;4979234;28;20216;-81
2022/11/29 09:34:24;;;;;;;5.90;5.30;;;7.10;99.90;;;;;;5011599;28;20623;-81
2022/11/29 09:36:50;;;;;;;9.10;5.70;;;7.20;99.90;;;;;;4978892;28;20304;-80
2022/11/29 09:39:15;;;;;;;5.70;4.80;;;7.20;99.90;;;;;;4995166;28;20205;-80
2022/11/29 09:41:57;;;;;;;10.47;4.73;;;7.10;99.90;;;;;;4995603;28;20456;-80
2022/11/29 09:44:47;;;;;;;10.90;3.63;;;7.20;99.90;;;;;;5012811;28;20197;-80
2022/11/29 09:47:28;;;;;;;5.13;4.20;;;7.20;99.90;;;;;;5011840;28;20454;-81
2022/11/29 09:50:10;;;;;;;7.53;4.97;;;7.20;99.90;;;;;;5014755;28;20424;-80
2022/11/29 09:53:00;;;;;;;10.30;4.87;;;7.30;99.90;;;;;;5019321;28;20439;-80
2022/11/29 09:55:37;;;;;;;10.83;4.97;;;7.30;99.90;;;;;;5017003;28;20401;-81
2022/11/29 09:58:06;;;;;;;7.30;4.67;;;7.30;99.90;;;;;;5014909;28;20431;-80
2022/11/29 10:00:37;;;;;;;13.03;4.63;;;7.30;99.90;;;;;;5015938;28;20458;-80
2022/11/29 10:03:24;;;;;;;12.20;6.37;;;7.30;99.90;;;;;;5016160;28;20464;-81
2022/11/29 10:05:56;;;;;;;8.27;5.03;;;7.40;99.90;;;;;;5013168;28;20413;-80
2022/11/29 10:08:47;;;;;;;9.03;5.10;;;7.40;99.90;;;;;;4997271;28;20412;-81
2022/11/29 10:11:21;;;;;;;12.50;5.00;;;7.50;99.90;;;;;;5006694;28;20522;-81
2022/11/29 10:13:55;;;;;;;6.90;5.10;;;7.50;99.90;;;;;;5016006;28;20420;-80
2022/11/29 10:16:49;;;;;;;5.90;4.43;;;7.50;99.90;;;;;;5010589;28;20412;-81
2022/11/29 10:19:21;;;;;;;9.53;5.27;;;7.60;99.90;;;;;;4983656;28;20973;-80
2022/11/29 10:21:59;;;;;;;7.50;5.43;;;7.50;99.90;;;;;;5010145;28;20448;-80
2022/11/29 10:24:27;;;;;;;7.00;5.43;;;7.50;99.90;;;;;;5010620;28;20456;-80
2022/11/29 10:26:53;;;;;;;9.40;6.20;;;7.40;99.90;;;;;;5011571;28;20424;-80
2022/11/29 10:29:18;;;;;;;9.43;5.17;;;7.50;99.90;;;;;;5010457;28;20541;-80
2022/11/29 10:31:48;;;;;;;10.57;6.13;;;7.50;99.90;;;;;;5010592;28;20197;-80
2022/11/29 10:34:19;;;;;;;7.93;4.90;;;7.50;99.90;;;;;;5010347;28;20185;-80
2022/11/29 10:36:58;;;;;;;10.30;5.80;;;7.50;99.90;;;;;;5010225;28;21028;-80
2022/11/29 10:39:38;;;;;;;9.53;5.50;;;7.50;99.90;;;;;;5011733;28;20396;-80
2022/11/29 10:42:47;;;;;;;13.03;6.20;;;7.40;99.90;;;;;;5010924;28;20450;-80
2022/11/29 10:44:54;;;;;;;12.23;6.00;;;7.50;99.90;;;;;;5018621;28;20492;-80
2022/11/29 10:47:19;;;;;;;9.60;6.13;;;7.50;99.90;;;;;;4996173;28;20512;-81
2022/11/29 10:49:45;;;;;;;14.23;6.33;;;7.50;99.90;;;;;;4994601;28;20182;-81
2022/11/29 10:52:18;;;;;;;8.53;5.30;;;7.50;99.90;;;;;;4979342;28;20212;-81
2022/11/29 10:54:45;;;;;;;7.97;4.93;;;7.50;99.90;;;;;;5012496;28;20185;-80
2022/11/29 10:57:17;;;;;;;7.13;5.30;;;7.40;99.90;;;;;;5010796;28;20474;-80
2022/11/29 10:59:58;;;;;;;11.53;3.73;;;7.70;99.90;;;;;;4994804;28;21029;-81
2022/11/29 11:02:24;;;;;;;6.10;4.53;;;7.50;99.90;;;;;;5011584;28;20440;-81
2022/11/29 11:04:50;;;;;;;5.37;3.70;;;7.60;99.90;;;;;;4994521;28;20468;-81
2022/11/29 11:07:32;;;;;;;3.73;3.20;;;7.60;99.90;;;;;;5011070;28;20455;-80
2022/11/29 11:09:58;;;;;;;5.20;3.27;;;7.50;99.90;;;;;;5011259;28;20169;-80
2022/11/29 11:12:30;;;;;;;3.43;2.03;;;7.80;99.90;;;;;;4995515;28;20823;-81
2022/11/29 11:15:19;;;;;;;10.23;5.90;;;7.50;99.90;;;;;;5010318;28;20575;-80
2022/11/29 11:17:58;;;;;;;5.77;4.77;;;7.50;99.90;;;;;;5010293;28;21261;-80
2022/11/29 11:20:28;;;;;;;5.47;4.93;;;7.50;99.90;;;;;;5012081;28;20839;-80
2022/11/29 11:23:00;;;;;;;5.90;4.40;;;7.50;99.90;;;;;;4995586;28;20432;-80
2022/11/29 11:25:34;;;;;;;6.57;5.10;;;7.60;99.90;;;;;;5012329;28;21028;-81
2022/11/29 11:28:24;;;;;;;4.87;4.23;;;7.60;99.90;;;;;;5011500;28;20435;-80
2022/11/29 11:30:51;;;;;;;4.47;4.07;;;7.50;99.90;;;;;;5012251;28;21012;-81
2022/11/29 11:33:30;;;;;;;6.90;5.43;;;7.50;99.90;;;;;;4994822;28;20523;-80
2022/11/29 11:36:12;;;;;;;9.67;5.37;;;7.50;99.90;;;;;;5011441;28;20443;-80
2022/11/29 11:38:53;;;;;;;4.87;3.87;;;7.50;99.90;;;;;;5012737;28;20477;-81
2022/11/29 11:44:30;;;;;;;3.90;3.47;;;7.60;99.90;;;;;;5011957;28;20444;-81
2022/11/29 11:46:56;;;;;;;5.77;4.23;;;7.60;99.90;;;;;;5011634;28;20436;-81
2022/11/29 11:49:32;;;;;;;7.97;5.97;;;7.70;99.90;;;;;;5011191;28;20937;-80
2022/11/29 11:52:00;;;;;;;6.70;4.80;;;7.60;99.90;;;;;;5010130;28;20446;-81
2022/11/29 11:54:27;;;;;;;5.53;4.90;;;7.60;99.90;;;;;;5009917;28;20432;-81
2022/11/29 11:56:53;;;;;;;8.47;6.37;;;7.80;99.90;;;;;;5010817;28;20456;-82
2022/11/29 11:59:23;;;;;;;7.33;5.87;;;7.70;99.90;;;;;;4994447;28;20454;-81
2022/11/29 12:01:49;;;;;;;8.37;6.90;;;7.70;99.90;;;;;;5009004;28;20208;-82
2022/11/29 12:04:28;;;;;;;8.57;6.30;;;7.80;99.90;;;;;;5010305;28;20478;-80
2022/11/29 12:07:00;;;;;;;11.37;6.37;;;7.70;99.90;;;;;;5009848;28;20494;-81
2022/11/29 12:09:46;;;;;;;15.87;11.10;;;7.60;99.90;;;;;;5011579;28;20471;-82
2022/11/29 12:12:30;;;;;;;17.63;12.07;;;7.80;99.90;;;;;;5010824;28;20452;-80
2022/11/29 12:15:04;;;;;;;12.87;9.30;;;7.60;99.90;;;;;;5009151;28;20426;-82
2022/11/29 12:17:30;;;;;;;15.70;10.60;;;7.60;99.90;;;;;;5011532;28;20403;-81
2022/11/29 12:20:21;;;;;;;14.57;10.83;;;7.70;99.90;;;;;;5009028;28;20502;-82
2022/11/29 12:23:25;;;;;;;16.77;10.10;;;7.60;99.90;;;;;;5008172;28;20658;-81
2022/11/29 12:26:11;;;;;;;19.60;11.07;;;7.60;99.90;;;;;;5009522;28;20483;-81
2022/11/29 12:28:41;;;;;;;16.30;11.30;;;7.60;99.90;;;;;;4993649;28;20430;-81
2022/11/29 12:31:28;;;;;;;20.23;11.73;;;7.50;99.90;;;;;;5007899;28;20457;-80
2022/11/29 12:33:59;;;;;;;15.43;12.03;;;7.60;99.90;;;;;;5009221;28;20434;-81
2022/11/29 12:36:45;;;;;;;21.00;12.47;;;7.50;99.90;;;;;;5007644;28;20424;-81
2022/11/29 12:39:38;;;;;;;15.20;11.90;;;7.60;99.90;;;;;;5010476;28;20415;-81
2022/11/29 12:42:06;;;;;;;17.60;12.13;;;7.60;99.90;;;;;;5009348;28;20471;-81
2022/11/29 12:44:37;;;;;;;16.50;12.03;;;7.60;99.90;;;;;;5009176;28;20464;-80
2022/11/29 12:47:28;;;;;;;19.53;13.27;;;7.60;99.90;;;;;;5007150;28;20432;-81
2022/11/29 12:50:03;;;;;;;19.90;13.20;;;7.50;99.90;;;;;;5007309;28;20417;-80
2022/11/29 12:52:43;;;;;;;22.20;14.40;;;7.50;99.90;;;;;;5006993;28;20447;-80
2022/11/29 12:55:21;;;;;;;14.00;11.30;;;7.50;99.90;;;;;;5008796;28;20403;-80
2022/11/29 12:58:06;;;;;;;20.93;11.73;;;7.50;99.90;;;;;;5010522;28;20427;-81
2022/11/29 13:00:38;;;;;;;14.03;10.70;;;7.50;99.90;;;;;;5012550;28;20915;-81
2022/11/29 13:03:27;;;;;;;12.53;9.90;;;7.40;99.90;;;;;;4995927;28;20464;-81
2022/11/29 13:06:30;;;;;;;18.17;10.03;;;7.30;99.90;;;;;;5011603;28;21040;-81
2022/11/29 13:09:15;;;;;;;15.90;11.30;;;7.30;99.90;;;;;;5013080;28;20419;-81
2022/11/29 13:12:01;;;;;;;16.57;11.83;;;7.40;99.90;;;;;;5012754;28;20478;-80
2022/11/29 13:14:42;;;;;;;18.00;11.00;;;7.30;99.90;;;;;;5012830;28;20411;-80
2022/11/29 13:17:41;;;;;;;12.17;9.40;;;7.30;99.90;;;;;;5012415;28;20411;-81
2022/11/29 13:20:19;;;;;;;12.67;10.10;;;7.30;99.90;;;;;;5013010;28;20498;-80
2022/11/29 13:22:55;;;;;;;15.40;10.70;;;7.20;99.90;;;;;;5012408;28;20980;-81
2022/11/29 13:25:39;;;;;;;13.43;10.33;;;7.20;99.90;;;;;;5010947;28;20431;-81
2022/11/29 13:28:14;;;;;;;16.37;11.67;;;7.20;99.90;;;;;;5010495;28;20413;-80
2022/11/29 13:30:40;;;;;;;13.47;10.20;;;7.20;99.90;;;;;;5010826;28;20458;-80
2022/11/29 13:33:22;;;;;;;13.20;10.30;;;7.30;99.90;;;;;;4994998;28;20429;-81
2022/11/29 13:35:53;;;;;;;21.10;9.60;;;7.30;99.90;;;;;;5011314;28;20442;-81
2022/11/29 13:38:33;;;;;;;13.40;9.77;;;7.30;99.90;;;;;;5011061;28;20436;-81
2022/11/29 13:41:09;;;;;;;14.00;9.03;;;7.20;99.90;;;;;;5011832;28;20447;-81
2022/11/29 13:43:47;;;;;;;18.00;11.13;;;7.30;99.90;;;;;;5010629;28;20474;-80
2022/11/29 13:46:28;;;;;;;13.40;10.37;;;7.20;99.90;;;;;;5012288;28;20742;-81